Time;durP1;ratioP1;P1;durP2;ratioP2;P2;SDS_P1;SDS_P2;PMS_P1;PMS_P2;Temp;Humidity;BMP_temperature;BMP_pressure;BME280_temperature;BME280_humidity;BME280_pressure;Samples;Min_cycle;Max_cycle;Signal;HPM_P1;HPM_P2
2023/04/14 00:01:40;;;;;;;14.38;3.58;;;3.80;99.90;;;;;;5066055;28;20099;-64
2023/04/14 00:04:06;;;;;;;16.08;3.17;;;4.00;99.90;;;;;;5066657;28;20044;-63
2023/04/14 00:06:32;;;;;;;12.00;3.15;;;4.10;99.90;;;;;;5058783;28;20105;-63
2023/04/14 00:08:58;;;;;;;10.57;3.60;;;4.20;99.90;;;;;;5066458;28;20510;-63
2023/04/14 00:11:24;;;;;;;9.13;2.72;;;4.30;99.90;;;;;;5071426;28;20036;-65
2023/04/14 00:13:50;;;;;;;13.20;2.95;;;4.30;99.90;;;;;;5061615;28;20644;-64
2023/04/14 00:16:15;;;;;;;17.02;4.28;;;4.30;99.90;;;;;;5063354;28;20086;-64
2023/04/14 00:18:41;;;;;;;12.65;3.38;;;4.40;99.90;;;;;;5063248;28;20033;-63
2023/04/14 00:21:07;;;;;;;11.98;3.10;;;4.50;99.90;;;;;;5069697;28;20499;-64
2023/04/14 00:23:32;;;;;;;14.00;3.40;;;4.60;99.90;;;;;;5046242;28;20313;-63
2023/04/14 00:25:58;;;;;;;13.80;3.05;;;4.70;99.90;;;;;;5063068;28;20102;-63
2023/04/14 00:28:24;;;;;;;14.23;3.03;;;4.80;99.90;;;;;;5063377;28;20349;-62
2023/04/14 00:30:50;;;;;;;13.27;3.10;;;4.90;99.90;;;;;;5083150;28;20032;-62
2023/04/14 00:33:15;;;;;;;18.70;3.97;;;4.90;99.90;;;;;;5083634;28;20515;-64
2023/04/14 00:35:41;;;;;;;12.35;3.05;;;5.00;99.90;;;;;;5075792;28;20036;-62
2023/04/14 00:38:07;;;;;;;16.00;2.72;;;5.00;99.90;;;;;;5066406;28;20039;-66
2023/04/14 00:40:33;;;;;;;11.98;3.10;;;5.10;99.90;;;;;;5066384;28;20094;-63
2023/04/14 00:42:58;;;;;;;13.25;3.65;;;5.10;99.90;;;;;;5049312;28;20487;-62
2023/04/14 00:45:26;;;;;;;14.93;3.60;;;5.10;99.90;;;;;;5066315;28;20469;-63
2023/04/14 00:47:52;;;;;;;10.18;3.42;;;5.10;99.90;;;;;;5065993;28;20106;-65
2023/04/14 00:50:20;;;;;;;13.18;2.97;;;5.10;99.90;;;;;;5065242;28;20183;-65
2023/04/14 00:52:48;;;;;;;16.98;3.03;;;5.00;99.90;;;;;;5085612;28;20147;-64
2023/04/14 00:55:16;;;;;;;11.00;3.03;;;4.90;99.90;;;;;;5063851;28;20036;-64
2023/04/14 00:57:42;;;;;;;15.80;3.22;;;4.90;99.90;;;;;;5049395;28;20045;-63
2023/04/14 01:00:10;;;;;;;13.43;3.30;;;4.80;99.90;;;;;;5066189;28;20044;-63
2023/04/14 01:02:36;;;;;;;12.00;3.42;;;4.80;99.90;;;;;;5065750;28;20146;-63
2023/04/14 01:05:02;;;;;;;11.15;3.10;;;4.70;99.90;;;;;;5053717;28;20048;-64
2023/04/14 01:07:29;;;;;;;13.90;3.85;;;4.60;99.90;;;;;;5066600;28;20040;-63
2023/04/14 01:09:56;;;;;;;11.18;3.60;;;4.50;99.90;;;;;;5051256;28;20071;-63
2023/04/14 01:12:59;;;;;;;15.90;3.58;;;4.30;99.90;;;;;;5069463;28;20380;-64
2023/04/14 01:15:52;;;;;;;13.88;4.22;;;4.10;99.90;;;;;;5082945;28;20036;-64
2023/04/14 01:18:35;;;;;;;13.23;3.88;;;3.90;99.90;;;;;;5085956;28;20040;-63
2023/04/14 01:21:16;;;;;;;14.93;3.78;;;3.70;99.90;;;;;;5055683;28;20036;-64
2023/04/14 01:24:07;;;;;;;16.20;4.32;;;3.50;99.90;;;;;;5066037;28;20088;-67
2023/04/14 01:26:33;;;;;;;10.75;3.63;;;3.40;99.90;;;;;;5066007;28;20040;-65
2023/04/14 01:29:02;;;;;;;14.32;4.32;;;3.30;99.90;;;;;;5070195;28;20538;-62
2023/04/14 01:31:40;;;;;;;8.77;3.17;;;3.20;99.90;;;;;;5069057;28;20506;-63
2023/04/14 01:34:30;;;;;;;13.40;4.10;;;3.20;99.90;;;;;;5065633;28;20155;-65
2023/04/14 01:37:16;;;;;;;11.48;3.50;;;3.10;99.90;;;;;;5079012;28;20048;-67
2023/04/14 01:39:51;;;;;;;11.73;3.97;;;3.10;99.90;;;;;;5068878;28;20044;-65
2023/04/14 01:42:22;;;;;;;12.02;3.53;;;3.10;99.90;;;;;;5068779;28;20242;-64
2023/04/14 01:44:56;;;;;;;11.90;3.80;;;3.10;99.90;;;;;;5076116;28;20051;-65
2023/04/14 01:47:27;;;;;;;13.68;4.00;;;3.10;99.90;;;;;;5085762;28;20143;-64
2023/04/14 01:49:55;;;;;;;14.52;4.47;;;3.10;99.90;;;;;;5064287;28;20040;-65
2023/04/14 01:52:25;;;;;;;16.63;3.83;;;3.10;99.90;;;;;;5065429;28;20282;-65
2023/04/14 01:54:53;;;;;;;14.65;3.90;;;3.10;99.90;;;;;;5065020;28;20403;-65
2023/04/14 01:57:21;;;;;;;9.43;3.88;;;3.10;99.90;;;;;;5048154;28;20080;-65
2023/04/14 01:59:48;;;;;;;14.52;4.35;;;3.10;99.90;;;;;;5048033;28;20121;-64
2023/04/14 02:02:16;;;;;;;10.55;3.70;;;3.10;99.90;;;;;;5048119;28;20098;-64
2023/04/14 02:04:43;;;;;;;11.80;3.92;;;3.20;99.90;;;;;;5065526;28;20560;-65
2023/04/14 02:07:13;;;;;;;16.55;4.47;;;3.20;99.90;;;;;;5079861;28;20382;-64
2023/04/14 02:09:44;;;;;;;15.07;4.47;;;3.30;99.90;;;;;;5066506;28;20036;-64
2023/04/14 02:12:11;;;;;;;9.35;3.35;;;3.40;99.90;;;;;;5048373;28;20123;-65
2023/04/14 02:14:40;;;;;;;16.17;4.13;;;3.40;99.90;;;;;;5064799;28;20036;-64
2023/04/14 02:17:09;;;;;;;16.50;3.97;;;3.50;99.90;;;;;;5064441;28;20044;-65
2023/04/14 02:19:39;;;;;;;16.38;4.20;;;3.60;99.90;;;;;;5048095;28;20041;-64
2023/04/14 02:22:05;;;;;;;12.63;4.15;;;3.60;99.90;;;;;;5064172;28;20050;-66
2023/04/14 02:24:33;;;;;;;14.18;4.18;;;3.70;99.90;;;;;;5047669;28;20044;-65
2023/04/14 02:27:09;;;;;;;11.27;4.43;;;3.70;99.90;;;;;;5064815;28;20363;-64
2023/04/14 02:29:36;;;;;;;12.05;4.53;;;3.70;99.90;;;;;;5057079;28;20173;-64
2023/04/14 02:32:04;;;;;;;14.93;3.80;;;3.70;99.90;;;;;;5067681;28;20328;-64
2023/04/14 02:34:34;;;;;;;13.80;4.18;;;3.80;99.90;;;;;;5083781;28;20047;-64
2023/04/14 02:37:06;;;;;;;11.48;3.60;;;3.80;99.90;;;;;;5078396;28;20527;-64
2023/04/14 02:39:41;;;;;;;9.25;4.13;;;3.80;99.90;;;;;;5084565;28;20215;-64
2023/04/14 02:42:12;;;;;;;12.35;3.90;;;3.80;99.90;;;;;;5067866;28;20032;-64
2023/04/14 02:44:50;;;;;;;16.70;3.75;;;3.80;99.90;;;;;;5064578;28;20237;-64
2023/04/14 02:47:25;;;;;;;14.85;3.75;;;3.90;99.90;;;;;;5047438;28;20055;-64
2023/04/14 02:49:53;;;;;;;14.25;3.92;;;3.90;99.90;;;;;;5054143;28;20138;-64
2023/04/14 02:52:25;;;;;;;10.18;3.80;;;3.90;99.90;;;;;;5063716;28;20059;-64
2023/04/14 02:54:52;;;;;;;12.55;3.70;;;3.80;99.90;;;;;;5047304;28;20043;-64
2023/04/14 02:57:18;;;;;;;13.93;4.70;;;3.80;99.90;;;;;;5046832;28;20044;-65
2023/04/14 02:59:45;;;;;;;12.65;4.38;;;3.80;99.90;;;;;;5047194;28;20247;-64
2023/04/14 03:02:12;;;;;;;14.30;4.10;;;3.80;99.90;;;;;;5063463;28;20053;-64
2023/04/14 03:04:39;;;;;;;13.57;4.35;;;3.80;99.90;;;;;;5063649;28;20508;-65
2023/04/14 03:07:10;;;;;;;10.07;4.00;;;3.80;99.90;;;;;;5046612;28;20579;-64
2023/04/14 03:09:36;;;;;;;13.13;4.40;;;3.70;99.90;;;;;;5063242;28;20052;-65
2023/04/14 03:12:04;;;;;;;16.40;4.20;;;3.70;99.90;;;;;;5047245;28;20036;-63
2023/04/14 03:14:31;;;;;;;13.52;3.90;;;3.70;99.90;;;;;;5046608;28;20037;-64
2023/04/14 03:16:58;;;;;;;12.98;4.47;;;3.80;99.90;;;;;;5047142;28;20170;-65
2023/04/14 03:19:26;;;;;;;14.23;4.32;;;3.80;99.90;;;;;;5063585;28;20409;-64
2023/04/14 03:21:56;;;;;;;13.82;4.38;;;3.80;99.90;;;;;;5062956;28;20040;-64
2023/04/14 03:24:23;;;;;;;10.48;4.55;;;3.80;99.90;;;;;;5063502;28;20396;-62
2023/04/14 03:27:04;;;;;;;13.65;4.78;;;3.80;99.90;;;;;;5046666;28;20051;-66
2023/04/14 03:29:38;;;;;;;15.27;4.80;;;3.70;99.90;;;;;;5054893;28;20044;-65
2023/04/14 03:32:06;;;;;;;15.55;4.60;;;3.70;99.90;;;;;;5067048;28;20391;-65
2023/04/14 03:34:36;;;;;;;14.13;4.78;;;3.70;99.90;;;;;;5066108;28;20567;-64
2023/04/14 03:37:04;;;;;;;13.45;4.10;;;3.70;99.90;;;;;;5047275;28;20044;-64
2023/04/14 03:39:33;;;;;;;12.00;4.82;;;3.70;99.90;;;;;;5062932;28;20036;-64
2023/04/14 03:42:00;;;;;;;14.75;4.40;;;3.60;99.90;;;;;;5047152;28;20549;-65
2023/04/14 03:44:31;;;;;;;13.80;4.43;;;3.60;99.90;;;;;;5054160;28;20558;-65
2023/04/14 03:47:01;;;;;;;14.35;4.13;;;3.70;99.90;;;;;;5063730;28;20544;-64
2023/04/14 03:49:27;;;;;;;16.85;4.75;;;3.70;99.90;;;;;;5061565;28;20426;-66
2023/04/14 03:51:58;;;;;;;11.52;3.97;;;3.70;99.90;;;;;;5062448;28;20045;-65
2023/04/14 03:54:26;;;;;;;14.50;4.65;;;3.70;99.90;;;;;;5046549;28;20041;-66
2023/04/14 03:56:55;;;;;;;18.05;4.75;;;3.70;99.90;;;;;;5063284;28;20037;-63
2023/04/14 03:59:24;;;;;;;13.60;4.47;;;3.70;99.90;;;;;;5063074;28;20079;-64
2023/04/14 04:01:53;;;;;;;14.07;4.82;;;3.70;99.90;;;;;;5046312;28;20095;-64
2023/04/14 04:04:25;;;;;;;14.95;4.70;;;3.70;99.90;;;;;;5046472;28;20076;-65
2023/04/14 04:06:52;;;;;;;14.38;4.47;;;3.70;99.90;;;;;;5062648;28;20036;-65
2023/04/14 04:09:21;;;;;;;13.10;4.55;;;3.60;99.90;;;;;;5048889;28;20087;-66
2023/04/14 04:11:48;;;;;;;14.20;4.75;;;3.60;99.90;;;;;;5078704;28;20044;-64
2023/04/14 04:14:16;;;;;;;18.08;5.13;;;3.60;99.90;;;;;;5063453;28;20032;-64
2023/04/14 04:16:46;;;;;;;13.32;4.70;;;3.50;99.90;;;;;;5050204;28;20037;-63
2023/04/14 04:19:14;;;;;;;12.40;4.70;;;3.50;99.90;;;;;;5050618;28;20465;-64
2023/04/14 04:21:43;;;;;;;15.80;5.30;;;3.50;99.90;;;;;;5060650;28;20396;-64
2023/04/14 04:24:12;;;;;;;11.10;5.03;;;3.40;99.90;;;;;;5087536;28;20048;-64
2023/04/14 04:26:38;;;;;;;11.23;5.05;;;3.50;99.90;;;;;;5070234;28;20048;-63
2023/04/14 04:29:05;;;;;;;12.77;5.10;;;3.40;99.90;;;;;;5063405;28;20036;-63
2023/04/14 04:31:32;;;;;;;15.77;4.82;;;3.40;99.90;;;;;;5050019;28;20052;-63
2023/04/14 04:33:58;;;;;;;11.77;4.93;;;3.30;99.90;;;;;;5056526;28;20123;-64
2023/04/14 04:36:26;;;;;;;13.88;4.80;;;3.30;99.90;;;;;;5064113;28;20128;-63
2023/04/14 04:38:52;;;;;;;12.60;4.70;;;3.30;99.90;;;;;;5066957;28;20127;-64
2023/04/14 04:41:29;;;;;;;13.43;4.60;;;3.30;99.90;;;;;;5083623;28;20117;-64
2023/04/14 04:43:55;;;;;;;10.85;4.75;;;3.30;99.90;;;;;;5066282;28;20050;-63
2023/04/14 04:46:43;;;;;;;11.90;5.70;;;3.20;99.90;;;;;;5049656;28;20040;-64
2023/04/14 04:49:09;;;;;;;13.35;6.00;;;3.20;99.90;;;;;;5050040;28;20702;-64
2023/04/14 04:51:35;;;;;;;15.23;5.38;;;3.20;99.90;;;;;;5065835;28;20430;-64
2023/04/14 04:54:05;;;;;;;12.48;5.20;;;3.20;99.90;;;;;;5066464;28;20503;-64
2023/04/14 04:56:34;;;;;;;16.08;5.25;;;3.20;99.90;;;;;;5049584;28;20036;-64
2023/04/14 04:59:00;;;;;;;12.15;5.13;;;3.20;99.90;;;;;;5049770;28;20036;-65
2023/04/14 05:01:26;;;;;;;14.18;5.43;;;3.10;99.90;;;;;;5065918;28;20118;-65
2023/04/14 05:03:53;;;;;;;14.00;5.55;;;3.10;99.90;;;;;;5066509;28;20048;-66
2023/04/14 05:06:21;;;;;;;12.18;5.28;;;3.10;99.90;;;;;;5059857;28;20054;-65
2023/04/14 05:08:49;;;;;;;16.00;5.65;;;3.10;99.90;;;;;;5049652;28;20458;-65
2023/04/14 05:11:18;;;;;;;12.68;5.47;;;3.10;99.90;;;;;;5048975;28;20053;-64
2023/04/14 05:13:44;;;;;;;12.55;5.60;;;3.20;99.90;;;;;;5067513;28;20093;-65
2023/04/14 05:16:14;;;;;;;14.85;6.22;;;3.20;99.90;;;;;;5069551;28;20678;-65
2023/04/14 05:18:41;;;;;;;15.70;6.22;;;3.20;99.90;;;;;;5054426;28;20041;-63
2023/04/14 05:21:25;;;;;;;14.90;6.30;;;3.20;99.90;;;;;;5047756;28;20486;-64
2023/04/14 05:24:00;;;;;;;19.75;7.15;;;3.30;99.90;;;;;;5066287;28;20169;-62
2023/04/14 05:26:26;;;;;;;34.55;14.73;;;3.30;99.90;;;;;;5065798;28;20426;-64
2023/04/14 05:28:52;;;;;;;23.70;11.10;;;3.30;99.90;;;;;;5065683;28;20051;-64
2023/04/14 05:31:18;;;;;;;17.67;7.68;;;3.40;99.90;;;;;;5074073;28;20052;-65
2023/04/14 05:33:44;;;;;;;17.83;6.40;;;3.40;99.90;;;;;;5085341;28;20039;-65
2023/04/14 05:36:10;;;;;;;17.17;5.90;;;3.50;99.90;;;;;;5066819;28;20538;-66
2023/04/14 05:38:40;;;;;;;12.68;5.88;;;3.60;99.90;;;;;;5085321;28;20074;-63
2023/04/14 05:41:06;;;;;;;16.85;5.90;;;3.60;99.90;;;;;;5067030;28;20596;-64
2023/04/14 05:43:32;;;;;;;20.05;5.97;;;3.80;99.90;;;;;;5075897;28;20052;-64
2023/04/14 05:45:59;;;;;;;16.75;5.47;;;4.30;99.90;;;;;;5065675;28;20048;-64
2023/04/14 05:48:28;;;;;;;11.52;5.18;;;4.30;99.90;;;;;;5065194;28;20079;-65
2023/04/14 05:50:57;;;;;;;14.50;5.43;;;4.40;99.90;;;;;;5051729;28;20044;-65
2023/04/14 05:53:23;;;;;;;16.50;5.90;;;4.50;99.90;;;;;;5068932;28;20185;-65
2023/04/14 05:55:53;;;;;;;15.75;5.65;;;4.50;99.90;;;;;;5066702;28;20050;-64
2023/04/14 05:58:19;;;;;;;13.98;5.88;;;4.70;99.90;;;;;;5065200;28;20050;-64
2023/04/14 06:00:45;;;;;;;20.00;6.30;;;4.90;99.90;;;;;;5065186;28;20056;-63
2023/04/14 06:03:18;;;;;;;13.55;5.68;;;5.00;99.90;;;;;;5067231;28;21102;-64
2023/04/14 06:05:46;;;;;;;12.65;5.20;;;5.20;99.90;;;;;;5072599;28;20596;-64
2023/04/14 06:08:13;;;;;;;19.27;5.65;;;5.30;99.90;;;;;;5065638;28;20151;-63
2023/04/14 06:10:39;;;;;;;13.23;4.53;;;5.50;99.90;;;;;;5067494;28;20324;-63
2023/04/14 06:13:05;;;;;;;12.05;4.50;;;6.20;99.90;;;;;;5066755;28;20052;-64
2023/04/14 06:15:31;;;;;;;10.18;4.50;;;6.70;99.90;;;;;;5081253;28;20059;-62
2023/04/14 06:17:56;;;;;;;12.07;4.47;;;7.00;99.90;;;;;;5067169;28;20066;-62
2023/04/14 06:20:22;;;;;;;10.88;3.95;;;6.90;99.90;;;;;;5083580;28;20040;-63
2023/04/14 06:22:50;;;;;;;8.82;4.03;;;7.20;99.90;;;;;;5084002;28;20043;-62
2023/04/14 06:25:16;;;;;;;13.60;4.45;;;7.60;99.90;;;;;;5084969;28;20043;-63
2023/04/14 06:27:42;;;;;;;14.00;6.03;;;8.10;99.90;;;;;;5068017;28;20570;-63
2023/04/14 06:30:09;;;;;;;15.52;4.18;;;8.20;99.90;;;;;;5070990;28;20507;-63
2023/04/14 06:32:35;;;;;;;11.15;4.10;;;8.30;99.90;;;;;;5063975;28;20045;-63
2023/04/14 06:35:03;;;;;;;11.25;3.83;;;8.20;99.90;;;;;;5050816;28;20602;-63
2023/04/14 06:37:29;;;;;;;11.70;4.20;;;8.10;99.90;;;;;;5048066;28;20040;-64
2023/04/14 06:39:55;;;;;;;13.63;4.45;;;8.10;99.90;;;;;;5048052;28;20040;-63
2023/04/14 06:42:21;;;;;;;12.80;4.47;;;8.40;99.90;;;;;;5068196;28;20055;-63
2023/04/14 06:44:50;;;;;;;11.70;4.45;;;8.60;99.90;;;;;;5072947;28;20040;-65
2023/04/14 06:47:22;;;;;;;13.20;4.63;;;9.00;99.90;;;;;;5063709;28;20140;-65
2023/04/14 06:49:49;;;;;;;12.27;4.43;;;9.30;99.90;;;;;;5063598;28;20048;-65
2023/04/14 06:52:15;;;;;;;11.10;3.80;;;9.60;99.90;;;;;;5063938;28;20052;-65
2023/04/14 06:54:41;;;;;;;10.00;3.92;;;9.80;99.90;;;;;;5064395;28;20105;-65
2023/04/14 06:57:07;;;;;;;12.02;3.97;;;10.10;99.90;;;;;;5065483;28;20573;-65
2023/04/14 06:59:33;;;;;;;11.18;3.50;;;10.40;99.90;;;;;;5047209;28;20041;-65
2023/04/14 07:02:00;;;;;;;9.40;3.63;;;10.70;99.90;;;;;;5065717;28;20056;-65
2023/04/14 07:04:26;;;;;;;14.25;3.92;;;10.70;99.90;;;;;;5067059;28;20169;-66
2023/04/14 07:06:52;;;;;;;11.50;4.18;;;10.90;99.90;;;;;;5061851;28;20094;-65
2023/04/14 07:09:19;;;;;;;15.45;4.90;;;11.30;99.90;;;;;;5063710;28;20088;-66
2023/04/14 07:11:45;;;;;;;12.30;3.53;;;11.70;99.90;;;;;;5063603;28;20139;-66
2023/04/14 07:14:12;;;;;;;12.52;4.07;;;11.90;99.90;;;;;;5063584;28;20029;-66
2023/04/14 07:16:38;;;;;;;9.48;3.55;;;11.90;99.90;;;;;;5063961;28;20566;-65
2023/04/14 07:19:04;;;;;;;14.63;3.63;;;11.80;99.90;;;;;;5063975;28;20193;-65
2023/04/14 07:21:32;;;;;;;11.95;4.07;;;11.70;99.90;;;;;;5069749;28;20044;-64
2023/04/14 07:23:58;;;;;;;16.92;3.70;;;11.60;99.90;;;;;;5063559;28;20127;-67
2023/04/14 07:26:24;;;;;;;11.57;3.65;;;11.60;99.90;;;;;;5080590;28;20048;-66
2023/04/14 07:28:53;;;;;;;13.52;3.75;;;11.60;99.90;;;;;;5046846;28;20285;-66
2023/04/14 07:31:19;;;;;;;12.90;3.40;;;12.00;99.90;;;;;;5047031;28;20044;-65
2023/04/14 07:33:45;;;;;;;13.23;3.47;;;12.70;99.90;;;;;;5063414;28;20075;-66
2023/04/14 07:36:11;;;;;;;8.80;3.58;;;13.20;99.90;;;;;;5046744;28;20116;-66
2023/04/14 07:38:37;;;;;;;10.02;3.70;;;13.60;99.90;;;;;;5047142;28;20036;-66
2023/04/14 07:41:05;;;;;;;14.90;3.72;;;14.00;99.90;;;;;;5047092;28;20044;-66
2023/04/14 07:43:34;;;;;;;14.45;3.70;;;14.20;99.90;;;;;;5056650;28;20040;-66
2023/04/14 07:46:05;;;;;;;15.68;3.55;;;14.60;99.90;;;;;;5051576;28;20128;-66
2023/04/14 07:48:35;;;;;;;11.80;3.35;;;15.30;99.90;;;;;;5051249;28;20052;-66
2023/04/14 07:51:03;;;;;;;11.05;3.38;;;15.60;99.90;;;;;;5073655;28;20098;-68
2023/04/14 07:53:30;;;;;;;12.90;3.58;;;16.00;99.60;;;;;;5067708;28;20484;-67
2023/04/14 07:55:57;;;;;;;9.23;3.10;;;16.10;98.60;;;;;;5067291;28;20052;-66
2023/04/14 07:58:23;;;;;;;11.55;3.22;;;16.10;97.70;;;;;;5086857;28;20047;-67
2023/04/14 08:00:50;;;;;;;16.35;3.65;;;16.30;96.70;;;;;;5086319;28;20478;-67
2023/04/14 08:03:16;;;;;;;15.48;3.40;;;16.40;96.00;;;;;;5070667;28;20044;-66
2023/04/14 08:05:42;;;;;;;12.50;3.38;;;16.40;94.70;;;;;;5077040;28;20061;-66
2023/04/14 08:08:09;;;;;;;14.18;3.05;;;16.40;94.90;;;;;;5067321;28;20589;-68
2023/04/14 08:10:36;;;;;;;11.73;2.83;;;16.00;94.30;;;;;;5050479;28;20040;-66
2023/04/14 08:13:02;;;;;;;13.35;3.25;;;16.00;93.50;;;;;;5067443;28;20124;-67
2023/04/14 08:15:28;;;;;;;13.23;3.00;;;16.00;92.30;;;;;;5067596;28;20132;-68
2023/04/14 08:17:54;;;;;;;14.85;2.63;;;16.00;92.60;;;;;;5050385;28;20033;-67
2023/04/14 08:20:21;;;;;;;13.43;2.97;;;16.20;91.60;;;;;;5071992;28;20055;-66
2023/04/14 08:22:47;;;;;;;16.15;3.00;;;16.40;91.00;;;;;;5066859;28;20128;-67
2023/04/14 08:25:15;;;;;;;11.80;2.67;;;16.50;91.00;;;;;;5066936;28;20123;-66
2023/04/14 08:27:42;;;;;;;12.10;2.28;;;16.80;90.90;;;;;;5066923;28;20408;-66
2023/04/14 08:30:09;;;;;;;11.57;2.75;;;17.30;90.20;;;;;;5050611;28;20470;-66
2023/04/14 08:32:35;;;;;;;11.48;3.17;;;17.50;86.10;;;;;;5050423;28;20425;-66
2023/04/14 08:35:01;;;;;;;11.93;2.53;;;17.80;85.30;;;;;;5067926;28;20048;-66
2023/04/14 08:37:27;;;;;;;16.30;2.78;;;18.10;82.80;;;;;;5066744;28;20577;-66
2023/04/14 08:39:53;;;;;;;9.80;2.38;;;18.30;81.60;;;;;;5066911;28;20076;-66
2023/04/14 08:42:20;;;;;;;10.45;2.58;;;18.30;80.10;;;;;;5066986;28;20044;-66
2023/04/14 08:44:47;;;;;;;13.70;2.65;;;18.50;77.80;;;;;;5056836;28;20046;-67
2023/04/14 08:47:21;;;;;;;13.20;2.50;;;18.20;77.70;;;;;;5050013;28;20240;-66
2023/04/14 08:49:55;;;;;;;18.00;2.97;;;18.20;79.10;;;;;;5066231;28;20040;-65
2023/04/14 08:52:26;;;;;;;9.90;2.35;;;18.70;74.70;;;;;;5049754;28;20531;-67
2023/04/14 08:54:58;;;;;;;14.25;3.22;;;18.60;73.40;;;;;;5066437;28;20036;-67
2023/04/14 08:57:25;;;;;;;14.32;2.90;;;18.40;67.90;;;;;;5049783;28;20047;-68
2023/04/14 08:59:54;;;;;;;10.15;2.20;;;18.40;71.60;;;;;;5066256;28;20040;-68
2023/04/14 09:02:20;;;;;;;12.13;2.60;;;18.20;71.70;;;;;;5049445;28;20048;-67
2023/04/14 09:04:48;;;;;;;11.88;2.50;;;17.90;70.30;;;;;;5049804;28;20044;-67
2023/04/14 09:07:15;;;;;;;11.05;2.60;;;17.40;72.00;;;;;;5054721;28;20135;-66
2023/04/14 09:09:42;;;;;;;11.88;3.10;;;16.90;74.10;;;;;;5066206;28;20574;-67
2023/04/14 09:12:08;;;;;;;10.32;2.88;;;16.60;77.70;;;;;;5066422;28;20102;-67
2023/04/14 09:14:36;;;;;;;12.32;2.30;;;16.80;77.10;;;;;;5049428;28;20044;-68
2023/04/14 09:17:02;;;;;;;12.43;2.83;;;17.10;76.90;;;;;;5067457;28;20421;-67
2023/04/14 09:19:28;;;;;;;8.55;2.00;;;17.20;75.50;;;;;;5066121;28;20044;-67
2023/04/14 09:21:55;;;;;;;11.93;2.95;;;17.10;75.10;;;;;;5049780;28;20101;-68
2023/04/14 09:24:32;;;;;;;11.75;2.63;;;16.70;73.40;;;;;;5066300;28;20044;-68
2023/04/14 09:27:04;;;;;;;9.13;2.60;;;16.60;71.10;;;;;;5066216;28;20155;-68
2023/04/14 09:29:31;;;;;;;10.77;2.53;;;16.80;72.30;;;;;;5066484;28;20040;-65
2023/04/14 09:31:57;;;;;;;12.52;2.40;;;16.30;71.60;;;;;;5065722;28;20105;-68
2023/04/14 09:34:29;;;;;;;11.75;2.58;;;15.90;72.90;;;;;;5049215;28;20416;-68
2023/04/14 09:37:03;;;;;;;12.05;2.70;;;15.40;72.00;;;;;;5076790;28;20096;-64
2023/04/14 09:39:33;;;;;;;11.20;2.65;;;14.70;70.60;;;;;;5085911;28;20058;-68
2023/04/14 09:42:03;;;;;;;12.10;3.05;;;14.40;75.30;;;;;;5075744;28;20099;-69
2023/04/14 09:44:29;;;;;;;9.05;2.58;;;14.70;78.10;;;;;;5065890;28;20127;-69
2023/04/14 09:47:04;;;;;;;8.88;2.63;;;15.20;76.40;;;;;;5065698;28;20032;-68
2023/04/14 09:49:30;;;;;;;10.27;2.47;;;15.40;76.90;;;;;;5065643;28;20368;-67
2023/04/14 09:52:08;;;;;;;13.32;2.83;;;15.30;76.20;;;;;;5048246;28;20243;-67
2023/04/14 09:54:34;;;;;;;12.02;3.08;;;15.00;80.10;;;;;;5065238;28;20051;-67
2023/04/14 09:57:04;;;;;;;15.82;2.67;;;15.00;82.30;;;;;;5065379;28;20503;-71
2023/04/14 09:59:37;;;;;;;11.60;3.10;;;15.00;78.00;;;;;;5065185;28;20052;-68
2023/04/14 10:02:08;;;;;;;10.55;2.58;;;15.20;82.00;;;;;;5064902;28;20052;-68
2023/04/14 10:04:36;;;;;;;12.88;2.67;;;15.80;77.20;;;;;;5048513;28;20060;-68
2023/04/14 10:07:11;;;;;;;10.88;2.47;;;16.60;77.50;;;;;;5079864;28;20565;-68
2023/04/14 10:09:37;;;;;;;12.35;2.90;;;17.40;74.90;;;;;;5065379;28;20124;-70
2023/04/14 10:12:12;;;;;;;12.73;3.03;;;17.40;71.90;;;;;;5067201;28;20196;-67
2023/04/14 10:14:42;;;;;;;11.00;2.67;;;17.70;68.00;;;;;;5077071;28;20549;-68
2023/04/14 10:17:09;;;;;;;9.23;3.00;;;17.70;70.00;;;;;;5048494;28;20040;-68
2023/04/14 10:19:36;;;;;;;13.57;3.42;;;17.20;69.60;;;;;;5065278;28;20610;-66
2023/04/14 10:22:04;;;;;;;13.23;3.28;;;16.90;70.90;;;;;;5064751;28;20048;-65
2023/04/14 10:24:31;;;;;;;12.43;3.05;;;17.10;70.80;;;;;;5064975;28;20699;-66
2023/04/14 10:27:01;;;;;;;13.85;3.20;;;17.20;73.40;;;;;;5064704;28;20048;-67
2023/04/14 10:29:29;;;;;;;14.98;3.17;;;17.30;73.00;;;;;;5048665;28;20052;-67
2023/04/14 10:32:08;;;;;;;12.23;3.28;;;17.20;70.50;;;;;;5064441;28;20037;-67
2023/04/14 10:34:36;;;;;;;14.18;3.65;;;16.80;68.80;;;;;;5064675;28;20068;-68
2023/04/14 10:37:15;;;;;;;12.73;3.17;;;16.20;73.60;;;;;;5082604;28;20050;-69
2023/04/14 10:39:41;;;;;;;15.18;3.83;;;16.00;73.60;;;;;;5084801;28;20259;-67
2023/04/14 10:42:08;;;;;;;12.43;3.58;;;16.00;74.30;;;;;;5063556;28;20534;-67
2023/04/14 10:44:35;;;;;;;13.50;3.50;;;16.60;73.90;;;;;;5064628;28;20473;-67
2023/04/14 10:47:03;;;;;;;11.68;3.22;;;17.20;71.80;;;;;;5064496;28;20514;-66
2023/04/14 10:49:32;;;;;;;11.55;3.38;;;17.80;71.60;;;;;;5064473;28;20478;-67
2023/04/14 10:51:59;;;;;;;12.95;3.63;;;18.30;70.80;;;;;;5047344;28;20068;-67
2023/04/14 10:54:26;;;;;;;13.38;3.40;;;18.10;69.10;;;;;;5064458;28;20114;-67
2023/04/14 10:57:11;;;;;;;10.70;3.25;;;17.70;69.20;;;;;;5064493;28;20044;-68
2023/04/14 10:59:46;;;;;;;11.02;3.25;;;17.30;68.70;;;;;;5063949;28;20070;-66
2023/04/14 11:02:27;;;;;;;9.77;3.67;;;17.70;70.70;;;;;;5064009;28;20293;-68
2023/04/14 11:05:04;;;;;;;12.90;3.38;;;18.70;66.80;;;;;;5064506;28;20060;-68
2023/04/14 11:07:31;;;;;;;11.43;3.35;;;19.50;63.80;;;;;;5062417;28;20040;-68
2023/04/14 11:10:16;;;;;;;10.73;3.95;;;20.10;64.20;;;;;;5067628;28;20043;-66
2023/04/14 11:12:43;;;;;;;10.98;3.95;;;20.10;60.90;;;;;;5067919;28;20044;-68
2023/04/14 11:15:09;;;;;;;7.68;3.40;;;19.60;62.20;;;;;;5078580;28;20055;-67
2023/04/14 11:17:39;;;;;;;14.18;3.47;;;18.80;61.90;;;;;;5067196;28;20055;-67
2023/04/14 11:20:19;;;;;;;10.63;3.60;;;18.20;62.30;;;;;;5072662;28;20040;-67
2023/04/14 11:22:49;;;;;;;11.32;3.33;;;18.00;63.00;;;;;;5064294;28;20419;-67
2023/04/14 11:25:17;;;;;;;12.30;4.05;;;17.70;63.20;;;;;;5064412;28;20040;-68
2023/04/14 11:27:44;;;;;;;10.70;3.35;;;17.80;65.60;;;;;;5047541;28;20048;-67
2023/04/14 11:30:16;;;;;;;10.35;3.10;;;17.90;64.60;;;;;;5064351;28;20457;-67
2023/04/14 11:32:52;;;;;;;9.13;2.92;;;18.40;64.00;;;;;;5064841;28;20032;-68
2023/04/14 11:35:19;;;;;;;13.50;3.75;;;18.80;61.00;;;;;;5063987;28;20082;-68
2023/04/14 11:37:47;;;;;;;10.52;3.30;;;19.20;61.60;;;;;;5063799;28;20040;-68
2023/04/14 11:40:14;;;;;;;8.15;2.60;;;19.70;59.90;;;;;;5064033;28;20072;-67
2023/04/14 11:43:00;;;;;;;10.65;2.15;;;19.70;59.40;;;;;;5047360;28;20040;-70
2023/04/14 11:45:30;;;;;;;12.52;3.00;;;19.50;57.10;;;;;;5063555;28;20056;-71
2023/04/14 11:48:04;;;;;;;8.85;2.33;;;19.00;59.30;;;;;;5050130;28;20040;-69
2023/04/14 11:50:32;;;;;;;10.40;3.03;;;18.60;64.50;;;;;;5077074;28;20153;-67
2023/04/14 11:53:05;;;;;;;9.60;2.92;;;18.40;62.10;;;;;;5063586;28;20048;-68
2023/04/14 11:55:31;;;;;;;10.48;2.85;;;18.40;61.40;;;;;;5063525;28;20419;-67
2023/04/14 11:57:57;;;;;;;10.48;2.38;;;18.50;61.50;;;;;;5063337;28;20040;-68
2023/04/14 12:00:26;;;;;;;10.35;2.25;;;18.10;60.70;;;;;;5063740;28;20044;-68
2023/04/14 12:02:52;;;;;;;11.00;2.45;;;17.80;60.20;;;;;;5063600;28;20430;-69
2023/04/14 12:05:31;;;;;;;7.28;2.42;;;17.50;59.80;;;;;;5046967;28;20534;-70
2023/04/14 12:08:02;;;;;;;11.02;2.60;;;17.60;61.00;;;;;;5046636;28;20036;-68
2023/04/14 12:10:28;;;;;;;12.88;2.85;;;18.00;61.50;;;;;;5063432;28;20040;-68
2023/04/14 12:13:02;;;;;;;13.52;2.63;;;18.20;61.10;;;;;;5046894;28;20365;-68
2023/04/14 12:15:32;;;;;;;9.85;2.38;;;18.10;61.10;;;;;;5047004;28;20041;-68
2023/04/14 12:17:59;;;;;;;8.07;2.30;;;18.30;58.10;;;;;;5063528;28;20511;-68
2023/04/14 12:20:26;;;;;;;8.63;2.30;;;18.50;58.30;;;;;;5046685;28;20076;-68
2023/04/14 12:23:00;;;;;;;9.90;2.22;;;18.50;57.00;;;;;;5063973;28;20062;-67
2023/04/14 12:25:29;;;;;;;;;;;18.90;53.60;;;;;;5064320;28;20052;-69
2023/04/14 12:27:55;;;;;;;9.10;1.92;;;19.20;56.00;;;;;;5063210;28;19933;-68
2023/04/14 12:30:21;;;;;;;9.05;2.05;;;19.60;54.50;;;;;;5065591;28;20098;-70
2023/04/14 12:32:51;;;;;;;9.15;2.63;;;20.00;53.80;;;;;;5050511;28;20040;-69
2023/04/14 12:35:25;;;;;;;12.15;2.10;;;20.10;52.90;;;;;;5084161;28;20036;-67
2023/04/14 12:37:51;;;;;;;12.23;2.60;;;20.30;53.70;;;;;;5049662;28;20041;-70
2023/04/14 12:40:17;;;;;;;10.32;2.75;;;20.20;53.30;;;;;;5050087;28;20499;-69
2023/04/14 12:42:46;;;;;;;12.50;2.40;;;20.00;52.70;;;;;;5068671;28;20424;-68
2023/04/14 12:45:12;;;;;;;9.60;2.65;;;19.90;53.30;;;;;;5074958;28;20048;-66
2023/04/14 12:47:38;;;;;;;12.13;2.90;;;19.80;54.40;;;;;;5050275;28;20135;-68
2023/04/14 12:50:27;;;;;;;8.93;2.10;;;19.60;53.30;;;;;;5063352;28;20163;-69
2023/04/14 12:52:54;;;;;;;8.25;2.30;;;19.70;52.50;;;;;;5067825;28;20032;-68